aviador You're here:

LFRJ Decoded Metar

LANDIVISIAU in FRANCE
Report Time2017-10-20 12:00:00
UTC Time2017-10-20 12:31:59
Flight Rules mvfr MVFR
Wind200° at 18 kt
W.Decomp.*RWY 26: 9.5 kt HW 15.3 kt LCW
W.Rank200° ranks 5
Current wind is above 200° avg. (9.6)
Visibility9999 m
Phenomena:N/A
Clouds:Broken 029 Hf
Broken 035 Hf
Broken 140 Hf
Expected CloudBase > 2,000 ft AGL from Temp-Dew spread
Ceiling2,900 ft
Temp15°C (ISA +1)
Dew Point10°C (72% RH)
AAT8.6°C
QNH1011 hPa
Density Alt699 ft
Elevation377 ft
Report Wrong Elevation
Raw Report
METAR LFRJ 201200Z AUTO 20018KT 9999 BKN029 BKN035 BKN140 15/10 Q1011
BECMG 20015G25KT=

Extra information for LFRJ:More info

Metar Taf Metar & Taf Last 4 Metars F.Rules Stats Wind Profile Meteogram Temp Stats Airport Information Weather charts Add Link Nearby VenuesMetar ALERT Operation Metar Decoded Social comments